createdAt,value
2022-08-27T00:00:30.256Z,21.40
2022-08-27T00:05:32.494Z,21.40
2022-08-27T00:10:35.137Z,21.40
2022-08-27T00:15:38.826Z,21.20
2022-08-27T00:20:41.079Z,21.10
2022-08-27T00:25:43.370Z,21.20
2022-08-27T00:30:47.284Z,21.30
2022-08-27T00:35:49.958Z,21.30
2022-08-27T00:40:52.624Z,21.20
2022-08-27T00:46:03.245Z,21.20
2022-08-27T00:51:07.256Z,21.00
2022-08-27T00:56:15.730Z,20.90
2022-08-27T01:01:21.092Z,21.00
2022-08-27T01:06:25.889Z,20.90
2022-08-27T01:11:28.350Z,20.80
2022-08-27T01:16:37.685Z,20.70
2022-08-27T01:21:46.821Z,20.70
2022-08-27T01:26:50.523Z,20.80
2022-08-27T01:31:52.732Z,20.80
2022-08-27T01:36:54.919Z,20.80
2022-08-27T01:42:06.942Z,20.80
2022-08-27T01:47:09.373Z,20.70
2022-08-27T01:52:12.332Z,20.70
2022-08-27T01:57:16.585Z,20.80
2022-08-27T02:02:18.949Z,20.70
2022-08-27T02:07:21.197Z,20.70
2022-08-27T02:12:24.675Z,20.60
2022-08-27T02:17:26.902Z,20.60
2022-08-27T02:22:29.105Z,20.80
2022-08-27T02:27:32.610Z,20.80
2022-08-27T02:32:37.505Z,20.80
2022-08-27T02:37:39.648Z,20.80
2022-08-27T02:42:45.587Z,20.80
2022-08-27T02:47:48.258Z,20.80
2022-08-27T02:52:50.751Z,20.90
2022-08-27T02:57:54.415Z,20.80
2022-08-27T03:02:57.011Z,20.90
2022-08-27T03:08:02.513Z,20.80
2022-08-27T03:13:06.033Z,20.70
2022-08-27T03:18:20.288Z,20.60
2022-08-27T03:23:25.379Z,20.40
2022-08-27T03:28:31.692Z,20.30
2022-08-27T03:33:38.476Z,20.30
2022-08-27T03:38:40.684Z,20.10
2022-08-27T03:43:44.174Z,20.00
2022-08-27T03:48:49.498Z,19.90
2022-08-27T03:53:55.981Z,19.80
2022-08-27T03:58:59.531Z,19.70
2022-08-27T04:04:01.685Z,19.70
2022-08-27T04:09:05.156Z,19.60
2022-08-27T04:14:26.121Z,19.60
2022-08-27T04:19:32.384Z,19.50
2022-08-27T04:24:37.161Z,19.50
2022-08-27T04:29:40.688Z,19.50
2022-08-27T04:34:42.837Z,19.40
2022-08-27T04:39:48.598Z,19.50
2022-08-27T04:44:53.956Z,19.50
2022-08-27T04:49:57.529Z,19.50
2022-08-27T04:55:00.626Z,19.50
2022-08-27T05:00:05.188Z,19.50
2022-08-27T05:05:09.315Z,19.60
2022-08-27T05:10:13.291Z,19.60
2022-08-27T05:15:17.100Z,19.70
2022-08-27T05:20:19.567Z,19.90
2022-08-27T05:25:21.725Z,20.00
2022-08-27T05:30:25.651Z,20.30
2022-08-27T05:35:28.528Z,20.70
2022-08-27T05:40:31.745Z,21.00
2022-08-27T05:45:35.652Z,21.20
2022-08-27T05:50:37.924Z,21.50
2022-08-27T05:55:41.660Z,21.50
2022-08-27T06:01:05.988Z,21.80
2022-08-27T06:06:13.132Z,22.10
2022-08-27T06:11:15.623Z,22.20
2022-08-27T06:16:20.844Z,22.20
2022-08-27T06:21:24.773Z,22.20
2022-08-27T06:26:28.024Z,22.30
2022-08-27T06:31:32.206Z,22.40
2022-08-27T06:36:36.957Z,22.30
2022-08-27T06:41:42.431Z,22.30
2022-08-27T06:46:49.623Z,22.30
2022-08-27T06:51:57.221Z,22.30
2022-08-27T06:57:02.910Z,22.50
2022-08-27T07:02:06.528Z,22.80
2022-08-27T07:12:41.054Z,23.00
2022-08-27T07:17:44.824Z,23.10
2022-08-27T07:22:48.080Z,23.20
2022-08-27T07:27:50.722Z,23.30
2022-08-27T07:32:54.535Z,22.90
2022-08-27T07:37:56.673Z,22.50
2022-08-27T07:43:16.389Z,22.50
2022-08-27T07:48:19.910Z,22.60
2022-08-27T07:53:22.575Z,22.60
2022-08-27T07:58:24.682Z,22.60
2022-08-27T08:03:28.747Z,22.70
2022-08-27T08:08:31.396Z,22.60
2022-08-27T08:13:39.225Z,22.60
2022-08-27T08:18:42.743Z,22.70
2022-08-27T08:23:45.390Z,23.00
2022-08-27T08:28:47.858Z,22.70
2022-08-27T08:33:52.304Z,22.70
2022-08-27T08:38:55.406Z,22.80
2022-08-27T08:44:01.053Z,22.80
2022-08-27T08:49:35.197Z,22.90
2022-08-27T08:54:40.768Z,23.20
2022-08-27T08:59:53.097Z,23.60
2022-08-27T09:05:08.196Z,23.90
2022-08-27T09:10:19.602Z,24.40
2022-08-27T09:15:26.689Z,24.80
2022-08-27T09:20:33.055Z,25.10
2022-08-27T09:25:39.884Z,25.20
2022-08-27T09:30:45.359Z,25.30
2022-08-27T09:35:50.935Z,25.40
2022-08-27T09:40:53.903Z,25.50
2022-08-27T09:45:59.809Z,26.00
2022-08-27T09:51:10.208Z,26.40
2022-08-27T09:56:25.508Z,26.30
2022-08-27T10:01:30.693Z,26.10
2022-08-27T10:06:34.373Z,26.00
2022-08-27T10:11:41.545Z,26.10
2022-08-27T10:16:58.679Z,25.90
2022-08-27T10:22:13.558Z,26.10
2022-08-27T10:27:31.873Z,26.30
2022-08-27T10:32:46.314Z,26.70
2022-08-27T10:38:08.228Z,27.10
2022-08-27T10:43:44.470Z,27.10
2022-08-27T10:48:54.757Z,27.40
2022-08-27T10:54:05.990Z,27.70
2022-08-27T10:59:26.077Z,27.80
2022-08-27T11:04:35.458Z,28.00
2022-08-27T11:09:49.531Z,28.50
2022-08-27T11:14:58.388Z,29.20
2022-08-27T11:20:08.156Z,29.30
2022-08-27T11:25:31.712Z,29.90
2022-08-27T11:30:45.958Z,29.80
2022-08-27T11:36:10.187Z,30.30
2022-08-27T11:41:29.546Z,30.40
2022-08-27T11:46:49.392Z,30.90
2022-08-27T11:52:00.057Z,31.60
2022-08-27T11:57:18.394Z,31.90
2022-08-27T12:02:31.765Z,32.10
2022-08-27T12:07:37.502Z,32.30
2022-08-27T12:12:54.615Z,33.10
2022-08-27T12:18:05.255Z,33.50
2022-08-27T12:23:34.925Z,33.20
2022-08-27T12:28:38.446Z,32.20
2022-08-27T12:33:43.176Z,31.70
2022-08-27T12:38:50.801Z,32.30
2022-08-27T12:44:06.058Z,33.30
2022-08-27T12:49:34.417Z,34.10
2022-08-27T12:54:42.791Z,34.00
2022-08-27T13:00:14.400Z,34.00
2022-08-27T13:05:21.813Z,34.80
2022-08-27T13:10:31.188Z,35.10
2022-08-27T13:15:35.419Z,35.50
2022-08-27T13:20:40.026Z,36.20
2022-08-27T13:25:45.009Z,35.90
2022-08-27T13:30:49.394Z,35.20
2022-08-27T13:35:52.408Z,35.20
2022-08-27T13:40:58.759Z,35.60
2022-08-27T13:46:03.759Z,34.50
2022-08-27T13:51:07.165Z,33.90
2022-08-27T13:56:10.064Z,33.30
2022-08-27T14:01:17.607Z,32.50
2022-08-27T14:06:31.424Z,32.10
2022-08-27T14:11:38.842Z,32.00
2022-08-27T14:16:42.480Z,31.90
2022-08-27T14:21:50.513Z,32.00
2022-08-27T14:26:54.502Z,31.90
2022-08-27T14:31:58.005Z,32.10
2022-08-27T14:37:03.999Z,32.30
2022-08-27T14:42:07.090Z,32.20
2022-08-27T14:47:14.425Z,32.00
2022-08-27T14:52:16.749Z,32.50
2022-08-27T14:57:19.588Z,32.70
2022-08-27T15:02:23.723Z,32.90
2022-08-27T15:07:29.362Z,33.40
2022-08-27T15:12:31.894Z,32.80
2022-08-27T15:17:35.809Z,33.40
2022-08-27T15:27:59.426Z,33.80
2022-08-27T15:38:29.057Z,32.60
2022-08-27T16:04:43.198Z,30.20
2022-08-27T16:09:45.478Z,29.90
2022-08-27T16:25:23.367Z,29.50
2022-08-27T16:35:36.850Z,29.00
2022-08-27T16:56:46.276Z,28.10
2022-08-27T17:01:50.993Z,27.80
2022-08-27T17:06:54.917Z,27.70
2022-08-27T17:12:00.972Z,27.70
2022-08-27T17:17:03.074Z,28.10
2022-08-27T17:22:09.566Z,28.00
2022-08-27T17:27:11.615Z,28.00
2022-08-27T17:32:13.753Z,27.60
2022-08-27T17:37:18.432Z,27.10
2022-08-27T17:42:21.088Z,26.40
2022-08-27T17:47:24.856Z,25.90
2022-08-27T17:52:28.505Z,25.60
2022-08-27T17:57:40.909Z,25.30
2022-08-27T18:02:46.683Z,25.20
2022-08-27T18:07:50.931Z,25.10
2022-08-27T18:12:55.776Z,25.10
2022-08-27T18:17:58.879Z,25.00
2022-08-27T18:23:04.566Z,24.90
2022-08-27T18:28:09.539Z,24.80
2022-08-27T18:33:12.094Z,24.70
2022-08-27T18:38:15.577Z,24.50
2022-08-27T18:43:18.345Z,24.50
2022-08-27T18:48:23.358Z,24.50
2022-08-27T18:53:29.039Z,24.40
2022-08-27T18:58:35.266Z,24.30
2022-08-27T19:03:40.169Z,24.30
2022-08-27T19:08:43.868Z,24.20
2022-08-27T19:13:50.480Z,24.20
2022-08-27T19:18:53.310Z,24.20
2022-08-27T19:23:56.856Z,24.10
2022-08-27T19:28:59.487Z,24.00
2022-08-27T19:34:01.552Z,24.00
2022-08-27T19:39:05.584Z,23.90
2022-08-27T19:44:14.641Z,23.90
2022-08-27T19:49:16.734Z,23.80
2022-08-27T19:54:20.732Z,23.50
2022-08-27T19:59:22.969Z,23.30
2022-08-27T20:04:29.104Z,23.10
2022-08-27T20:09:38.079Z,22.90
2022-08-27T20:14:40.185Z,22.70
2022-08-27T20:19:44.527Z,22.50
2022-08-27T20:24:51.082Z,22.20
2022-08-27T20:29:55.059Z,21.90
2022-08-27T20:34:57.208Z,21.50
2022-08-27T20:40:00.819Z,21.00
2022-08-27T20:45:02.963Z,20.60
2022-08-27T20:50:06.041Z,19.80
2022-08-27T20:55:12.221Z,18.00
2022-08-27T21:00:20.880Z,17.10
2022-08-27T21:05:24.073Z,16.60
2022-08-27T21:10:27.671Z,16.50
2022-08-27T21:15:29.970Z,16.50
2022-08-27T21:20:32.299Z,16.40
2022-08-27T21:25:35.905Z,16.40
2022-08-27T21:30:38.320Z,16.40
2022-08-27T21:35:40.515Z,16.40
2022-08-27T21:40:44.184Z,16.50
2022-08-27T21:45:46.739Z,16.60
2022-08-27T21:50:52.948Z,16.70
2022-08-27T21:55:56.878Z,16.70
2022-08-27T22:00:59.506Z,16.60
2022-08-27T22:06:01.876Z,16.50
2022-08-27T22:11:05.755Z,16.50
2022-08-27T22:16:08.480Z,16.40
2022-08-27T22:21:10.657Z,16.30
2022-08-27T22:26:14.368Z,16.40
2022-08-27T22:31:16.557Z,16.50
2022-08-27T22:36:18.670Z,16.60
2022-08-27T22:41:22.097Z,16.80
2022-08-27T22:46:24.321Z,16.90
2022-08-27T22:51:26.498Z,16.90
2022-08-27T22:56:29.927Z,16.90
2022-08-27T23:01:32.073Z,16.90
2022-08-27T23:06:34.548Z,16.80
2022-08-27T23:11:38.054Z,16.80
2022-08-27T23:16:40.106Z,16.80
2022-08-27T23:21:42.188Z,16.90
2022-08-27T23:27:03.076Z,17.00
2022-08-27T23:32:05.945Z,17.00
2022-08-27T23:37:08.239Z,17.00
2022-08-27T23:42:12.184Z,17.00
2022-08-27T23:47:14.560Z,17.10
2022-08-27T23:52:16.720Z,17.10
2022-08-27T23:57:20.220Z,17.10
